Purdy, Washington
Current Conditions -  °F | °C
As of 9:53 PM on Tuesday 27 Jan 2015 (Local Time) from KTIW Reporting Station
Overcast Overcast  
Wind Chill: 45°   Ceiling: 1700
Heat Index: 47°   Visibility: 10mi
Dew Point: 42°   Wind: 5mph
Humidity: 83%   Direction: 240°WSW
Pressure: 30.25"   Gusts: NA
Location:  47.2986°N, 122.616°W
Report Text: KTIW 280553Z AUTO 24004KT 10SM OVC017 08/06 A3025 RMK AO2 SLP244 T00830056 10111 20083 51026
Loading
Personal Weather Stations






























Interactive Weather Map New forecast layout! Learn more

10-Day Weather Forecast

Advertisements
Track Severe Weather on mobile